sensor_id;sensor_type;location;lat;lon;timestamp;P1;durP1;ratioP1;P2;durP2;ratioP2
3068;SDS011;1545;51.728;8.796;2023-04-24T00:02:10;2.60;;;1.80;;
3068;SDS011;1545;51.728;8.796;2023-04-24T00:04:37;2.30;;;2.10;;
3068;SDS011;1545;51.728;8.796;2023-04-24T00:07:06;2.00;;;1.83;;
3068;SDS011;1545;51.728;8.796;2023-04-24T00:09:32;2.63;;;2.10;;
3068;SDS011;1545;51.728;8.796;2023-04-24T00:11:58;2.63;;;2.17;;
3068;SDS011;1545;51.728;8.796;2023-04-24T00:14:24;1.97;;;1.90;;
3068;SDS011;1545;51.728;8.796;2023-04-24T00:16:50;3.30;;;2.30;;
3068;SDS011;1545;51.728;8.796;2023-04-24T00:19:15;3.87;;;1.83;;
3068;SDS011;1545;51.728;8.796;2023-04-24T00:21:41;5.77;;;2.00;;
3068;SDS011;1545;51.728;8.796;2023-04-24T00:24:07;5.23;;;2.10;;
3068;SDS011;1545;51.728;8.796;2023-04-24T00:26:34;2.60;;;2.10;;
3068;SDS011;1545;51.728;8.796;2023-04-24T00:28:59;2.37;;;2.00;;
3068;SDS011;1545;51.728;8.796;2023-04-24T00:31:25;3.27;;;2.00;;
3068;SDS011;1545;51.728;8.796;2023-04-24T00:33:50;2.77;;;2.13;;
3068;SDS011;1545;51.728;8.796;2023-04-24T00:36:16;4.67;;;2.10;;
3068;SDS011;1545;51.728;8.796;2023-04-24T00:38:44;2.07;;;1.90;;
3068;SDS011;1545;51.728;8.796;2023-04-24T00:41:09;3.10;;;2.00;;
3068;SDS011;1545;51.728;8.796;2023-04-24T00:43:35;4.27;;;2.00;;
3068;SDS011;1545;51.728;8.796;2023-04-24T00:46:00;3.97;;;2.10;;
3068;SDS011;1545;51.728;8.796;2023-04-24T00:48:26;2.43;;;1.80;;
3068;SDS011;1545;51.728;8.796;2023-04-24T00:50:53;2.13;;;1.97;;
3068;SDS011;1545;51.728;8.796;2023-04-24T00:53:18;2.60;;;1.90;;
3068;SDS011;1545;51.728;8.796;2023-04-24T00:55:44;4.30;;;2.00;;
3068;SDS011;1545;51.728;8.796;2023-04-24T00:58:10;2.50;;;2.10;;
3068;SDS011;1545;51.728;8.796;2023-04-24T01:00:36;2.17;;;2.00;;
3068;SDS011;1545;51.728;8.796;2023-04-24T01:03:01;2.97;;;1.87;;
3068;SDS011;1545;51.728;8.796;2023-04-24T01:05:30;2.43;;;1.80;;
3068;SDS011;1545;51.728;8.796;2023-04-24T01:07:57;1.93;;;1.87;;
3068;SDS011;1545;51.728;8.796;2023-04-24T01:10:23;2.43;;;2.03;;
3068;SDS011;1545;51.728;8.796;2023-04-24T01:12:50;2.10;;;1.90;;
3068;SDS011;1545;51.728;8.796;2023-04-24T01:15:16;2.30;;;1.90;;
3068;SDS011;1545;51.728;8.796;2023-04-24T01:17:42;2.30;;;1.97;;
3068;SDS011;1545;51.728;8.796;2023-04-24T01:20:07;2.27;;;1.90;;
3068;SDS011;1545;51.728;8.796;2023-04-24T01:22:34;1.90;;;1.80;;
3068;SDS011;1545;51.728;8.796;2023-04-24T01:24:59;2.00;;;1.80;;
3068;SDS011;1545;51.728;8.796;2023-04-24T01:27:25;2.00;;;1.70;;
3068;SDS011;1545;51.728;8.796;2023-04-24T01:29:51;2.57;;;1.80;;
3068;SDS011;1545;51.728;8.796;2023-04-24T01:32:17;4.17;;;1.60;;
3068;SDS011;1545;51.728;8.796;2023-04-24T01:34:43;3.60;;;1.80;;
3068;SDS011;1545;51.728;8.796;2023-04-24T01:37:10;2.37;;;1.87;;
3068;SDS011;1545;51.728;8.796;2023-04-24T01:39:35;2.13;;;1.60;;
3068;SDS011;1545;51.728;8.796;2023-04-24T01:42:01;2.97;;;1.70;;
3068;SDS011;1545;51.728;8.796;2023-04-24T01:44:27;2.13;;;1.87;;
3068;SDS011;1545;51.728;8.796;2023-04-24T01:46:53;2.23;;;1.60;;
3068;SDS011;1545;51.728;8.796;2023-04-24T01:49:20;1.90;;;1.77;;
3068;SDS011;1545;51.728;8.796;2023-04-24T01:51:45;2.70;;;1.70;;
3068;SDS011;1545;51.728;8.796;2023-04-24T01:54:11;2.43;;;1.60;;
3068;SDS011;1545;51.728;8.796;2023-04-24T01:56:39;3.30;;;1.80;;
3068;SDS011;1545;51.728;8.796;2023-04-24T01:59:07;2.30;;;1.67;;
3068;SDS011;1545;51.728;8.796;2023-04-24T02:01:35;1.80;;;1.70;;
3068;SDS011;1545;51.728;8.796;2023-04-24T02:04:02;1.83;;;1.70;;
3068;SDS011;1545;51.728;8.796;2023-04-24T02:06:27;3.03;;;1.70;;
3068;SDS011;1545;51.728;8.796;2023-04-24T02:08:53;1.97;;;1.87;;
3068;SDS011;1545;51.728;8.796;2023-04-24T02:11:18;2.80;;;1.70;;
3068;SDS011;1545;51.728;8.796;2023-04-24T02:13:44;3.90;;;2.00;;
3068;SDS011;1545;51.728;8.796;2023-04-24T02:16:10;2.00;;;1.90;;
3068;SDS011;1545;51.728;8.796;2023-04-24T02:18:35;8.70;;;2.00;;
3068;SDS011;1545;51.728;8.796;2023-04-24T02:21:01;3.00;;;2.00;;
3068;SDS011;1545;51.728;8.796;2023-04-24T02:23:27;1.97;;;1.90;;
3068;SDS011;1545;51.728;8.796;2023-04-24T02:25:52;1.93;;;1.83;;
3068;SDS011;1545;51.728;8.796;2023-04-24T02:28:18;3.00;;;1.97;;
3068;SDS011;1545;51.728;8.796;2023-04-24T02:30:44;2.33;;;1.90;;
3068;SDS011;1545;51.728;8.796;2023-04-24T02:33:10;2.30;;;1.90;;
3068;SDS011;1545;51.728;8.796;2023-04-24T02:35:36;1.93;;;1.80;;
3068;SDS011;1545;51.728;8.796;2023-04-24T02:38:02;1.87;;;1.80;;
3068;SDS011;1545;51.728;8.796;2023-04-24T02:40:28;2.57;;;1.97;;
3068;SDS011;1545;51.728;8.796;2023-04-24T02:42:53;2.00;;;1.90;;
3068;SDS011;1545;51.728;8.796;2023-04-24T02:45:19;2.90;;;2.10;;
3068;SDS011;1545;51.728;8.796;2023-04-24T02:47:44;2.43;;;2.00;;
3068;SDS011;1545;51.728;8.796;2023-04-24T02:50:10;3.57;;;2.10;;
3068;SDS011;1545;51.728;8.796;2023-04-24T02:52:35;2.67;;;2.27;;
3068;SDS011;1545;51.728;8.796;2023-04-24T02:55:01;2.50;;;2.00;;
3068;SDS011;1545;51.728;8.796;2023-04-24T02:57:26;2.50;;;2.10;;
3068;SDS011;1545;51.728;8.796;2023-04-24T02:59:52;2.20;;;2.00;;
3068;SDS011;1545;51.728;8.796;2023-04-24T03:02:17;3.30;;;2.00;;
3068;SDS011;1545;51.728;8.796;2023-04-24T03:04:43;2.17;;;2.00;;
3068;SDS011;1545;51.728;8.796;2023-04-24T03:07:08;1.90;;;1.90;;
3068;SDS011;1545;51.728;8.796;2023-04-24T03:09:34;2.00;;;1.90;;
3068;SDS011;1545;51.728;8.796;2023-04-24T03:11:59;3.90;;;2.07;;
3068;SDS011;1545;51.728;8.796;2023-04-24T03:14:25;3.63;;;2.20;;
3068;SDS011;1545;51.728;8.796;2023-04-24T03:16:50;1.90;;;1.90;;
3068;SDS011;1545;51.728;8.796;2023-04-24T03:19:16;1.80;;;1.70;;
3068;SDS011;1545;51.728;8.796;2023-04-24T03:21:41;2.83;;;2.00;;
3068;SDS011;1545;51.728;8.796;2023-04-24T03:24:07;3.43;;;2.10;;
3068;SDS011;1545;51.728;8.796;2023-04-24T03:26:34;2.03;;;1.87;;
3068;SDS011;1545;51.728;8.796;2023-04-24T03:29:00;4.03;;;1.80;;
3068;SDS011;1545;51.728;8.796;2023-04-24T03:31:25;1.97;;;1.90;;
3068;SDS011;1545;51.728;8.796;2023-04-24T03:33:51;6.50;;;1.87;;
3068;SDS011;1545;51.728;8.796;2023-04-24T03:36:17;2.27;;;1.80;;
3068;SDS011;1545;51.728;8.796;2023-04-24T03:38:44;3.40;;;2.30;;
3068;SDS011;1545;51.728;8.796;2023-04-24T03:41:09;2.63;;;1.80;;
3068;SDS011;1545;51.728;8.796;2023-04-24T03:43:35;2.63;;;2.00;;
3068;SDS011;1545;51.728;8.796;2023-04-24T03:46:01;2.83;;;1.97;;
3068;SDS011;1545;51.728;8.796;2023-04-24T03:48:27;4.90;;;2.33;;
3068;SDS011;1545;51.728;8.796;2023-04-24T03:50:52;2.27;;;2.10;;
3068;SDS011;1545;51.728;8.796;2023-04-24T03:53:18;3.57;;;1.90;;
3068;SDS011;1545;51.728;8.796;2023-04-24T03:55:44;5.20;;;1.90;;
3068;SDS011;1545;51.728;8.796;2023-04-24T03:58:10;2.43;;;1.93;;
3068;SDS011;1545;51.728;8.796;2023-04-24T04:00:36;4.27;;;2.07;;
3068;SDS011;1545;51.728;8.796;2023-04-24T04:03:02;2.87;;;2.00;;
3068;SDS011;1545;51.728;8.796;2023-04-24T04:05:28;4.37;;;2.07;;
3068;SDS011;1545;51.728;8.796;2023-04-24T04:07:54;2.20;;;1.90;;
3068;SDS011;1545;51.728;8.796;2023-04-24T04:10:19;5.10;;;2.03;;
3068;SDS011;1545;51.728;8.796;2023-04-24T04:12:45;1.93;;;1.83;;
3068;SDS011;1545;51.728;8.796;2023-04-24T04:15:11;2.67;;;2.13;;
3068;SDS011;1545;51.728;8.796;2023-04-24T04:17:36;3.00;;;1.90;;
3068;SDS011;1545;51.728;8.796;2023-04-24T04:20:03;2.87;;;2.30;;
3068;SDS011;1545;51.728;8.796;2023-04-24T04:22:33;9.83;;;3.23;;
3068;SDS011;1545;51.728;8.796;2023-04-24T04:24:59;5.00;;;3.30;;
3068;SDS011;1545;51.728;8.796;2023-04-24T04:27:24;5.23;;;3.63;;
3068;SDS011;1545;51.728;8.796;2023-04-24T04:29:50;3.97;;;3.57;;
3068;SDS011;1545;51.728;8.796;2023-04-24T04:32:16;6.73;;;3.40;;
3068;SDS011;1545;51.728;8.796;2023-04-24T04:34:41;7.23;;;3.80;;
3068;SDS011;1545;51.728;8.796;2023-04-24T04:37:07;8.80;;;3.77;;
3068;SDS011;1545;51.728;8.796;2023-04-24T04:39:33;5.47;;;3.80;;
3068;SDS011;1545;51.728;8.796;2023-04-24T04:41:59;4.93;;;3.93;;
3068;SDS011;1545;51.728;8.796;2023-04-24T04:44:25;4.60;;;3.93;;
3068;SDS011;1545;51.728;8.796;2023-04-24T04:46:53;4.67;;;3.97;;
3068;SDS011;1545;51.728;8.796;2023-04-24T04:49:21;5.30;;;3.57;;
3068;SDS011;1545;51.728;8.796;2023-04-24T04:51:48;10.87;;;3.80;;
3068;SDS011;1545;51.728;8.796;2023-04-24T04:54:14;5.77;;;3.80;;
3068;SDS011;1545;51.728;8.796;2023-04-24T04:56:40;4.63;;;3.60;;
3068;SDS011;1545;51.728;8.796;2023-04-24T04:59:06;7.43;;;4.27;;
3068;SDS011;1545;51.728;8.796;2023-04-24T05:01:31;6.30;;;4.27;;
3068;SDS011;1545;51.728;8.796;2023-04-24T05:03:57;10.47;;;4.30;;
3068;SDS011;1545;51.728;8.796;2023-04-24T05:06:22;6.50;;;4.60;;
3068;SDS011;1545;51.728;8.796;2023-04-24T05:08:48;7.27;;;4.73;;
3068;SDS011;1545;51.728;8.796;2023-04-24T05:11:13;9.73;;;6.57;;
3068;SDS011;1545;51.728;8.796;2023-04-24T05:13:39;13.40;;;6.60;;
3068;SDS011;1545;51.728;8.796;2023-04-24T05:16:05;8.93;;;7.00;;
3068;SDS011;1545;51.728;8.796;2023-04-24T05:18:31;11.27;;;7.70;;
3068;SDS011;1545;51.728;8.796;2023-04-24T05:20:56;13.73;;;8.13;;
3068;SDS011;1545;51.728;8.796;2023-04-24T05:23:22;14.50;;;8.70;;
3068;SDS011;1545;51.728;8.796;2023-04-24T05:25:47;12.83;;;8.33;;
3068;SDS011;1545;51.728;8.796;2023-04-24T05:28:13;13.40;;;8.97;;
3068;SDS011;1545;51.728;8.796;2023-04-24T05:30:39;13.50;;;9.70;;
3068;SDS011;1545;51.728;8.796;2023-04-24T05:33:04;17.33;;;10.37;;
3068;SDS011;1545;51.728;8.796;2023-04-24T05:35:30;15.43;;;10.50;;
3068;SDS011;1545;51.728;8.796;2023-04-24T05:37:56;17.47;;;11.13;;
3068;SDS011;1545;51.728;8.796;2023-04-24T05:40:21;18.27;;;11.80;;
3068;SDS011;1545;51.728;8.796;2023-04-24T05:42:47;16.93;;;11.33;;
3068;SDS011;1545;51.728;8.796;2023-04-24T05:45:13;20.10;;;11.77;;
3068;SDS011;1545;51.728;8.796;2023-04-24T05:47:41;18.00;;;11.87;;
3068;SDS011;1545;51.728;8.796;2023-04-24T05:50:08;17.90;;;11.37;;
3068;SDS011;1545;51.728;8.796;2023-04-24T05:52:34;18.33;;;11.90;;
3068;SDS011;1545;51.728;8.796;2023-04-24T05:55:00;22.37;;;11.00;;
3068;SDS011;1545;51.728;8.796;2023-04-24T05:57:25;15.00;;;10.50;;
3068;SDS011;1545;51.728;8.796;2023-04-24T05:59:51;16.67;;;10.33;;
3068;SDS011;1545;51.728;8.796;2023-04-24T06:02:16;17.07;;;10.60;;
3068;SDS011;1545;51.728;8.796;2023-04-24T06:04:42;15.60;;;9.80;;
3068;SDS011;1545;51.728;8.796;2023-04-24T06:07:10;15.97;;;10.03;;
3068;SDS011;1545;51.728;8.796;2023-04-24T06:09:36;14.77;;;9.50;;
3068;SDS011;1545;51.728;8.796;2023-04-24T06:12:01;17.43;;;9.13;;
3068;SDS011;1545;51.728;8.796;2023-04-24T06:14:27;18.23;;;9.60;;
3068;SDS011;1545;51.728;8.796;2023-04-24T06:16:53;15.20;;;10.13;;
3068;SDS011;1545;51.728;8.796;2023-04-24T06:19:18;15.37;;;9.43;;
3068;SDS011;1545;51.728;8.796;2023-04-24T06:21:44;14.23;;;9.93;;
3068;SDS011;1545;51.728;8.796;2023-04-24T06:24:09;13.90;;;9.00;;
3068;SDS011;1545;51.728;8.796;2023-04-24T06:26:35;14.27;;;9.63;;
3068;SDS011;1545;51.728;8.796;2023-04-24T06:29:01;15.47;;;8.67;;
3068;SDS011;1545;51.728;8.796;2023-04-24T06:31:26;15.07;;;9.67;;
3068;SDS011;1545;51.728;8.796;2023-04-24T06:33:52;17.53;;;9.03;;
3068;SDS011;1545;51.728;8.796;2023-04-24T06:36:17;14.77;;;9.17;;
3068;SDS011;1545;51.728;8.796;2023-04-24T06:38:43;20.90;;;12.80;;
3068;SDS011;1545;51.728;8.796;2023-04-24T06:41:09;15.73;;;10.07;;
3068;SDS011;1545;51.728;8.796;2023-04-24T06:43:35;22.63;;;10.27;;
3068;SDS011;1545;51.728;8.796;2023-04-24T06:46:01;16.87;;;10.60;;
3068;SDS011;1545;51.728;8.796;2023-04-24T06:48:28;14.63;;;10.60;;
3068;SDS011;1545;51.728;8.796;2023-04-24T06:50:54;14.83;;;10.53;;
3068;SDS011;1545;51.728;8.796;2023-04-24T06:53:19;15.47;;;10.97;;
3068;SDS011;1545;51.728;8.796;2023-04-24T06:55:45;19.50;;;10.60;;
3068;SDS011;1545;51.728;8.796;2023-04-24T06:58:11;18.30;;;11.60;;
3068;SDS011;1545;51.728;8.796;2023-04-24T07:00:36;16.70;;;10.97;;
3068;SDS011;1545;51.728;8.796;2023-04-24T07:03:02;18.23;;;9.60;;
3068;SDS011;1545;51.728;8.796;2023-04-24T07:05:30;20.83;;;9.93;;
3068;SDS011;1545;51.728;8.796;2023-04-24T07:07:55;14.13;;;10.13;;
3068;SDS011;1545;51.728;8.796;2023-04-24T07:10:23;16.23;;;9.97;;
3068;SDS011;1545;51.728;8.796;2023-04-24T07:12:49;13.07;;;9.20;;
3068;SDS011;1545;51.728;8.796;2023-04-24T07:15:15;14.23;;;8.87;;
3068;SDS011;1545;51.728;8.796;2023-04-24T07:17:41;17.17;;;9.57;;
3068;SDS011;1545;51.728;8.796;2023-04-24T07:20:09;20.23;;;11.70;;
3068;SDS011;1545;51.728;8.796;2023-04-24T07:22:35;12.83;;;8.53;;
3068;SDS011;1545;51.728;8.796;2023-04-24T07:25:02;13.13;;;8.90;;
3068;SDS011;1545;51.728;8.796;2023-04-24T07:27:27;13.67;;;9.10;;
3068;SDS011;1545;51.728;8.796;2023-04-24T07:29:53;12.23;;;8.70;;
3068;SDS011;1545;51.728;8.796;2023-04-24T07:32:18;12.60;;;8.20;;
3068;SDS011;1545;51.728;8.796;2023-04-24T07:34:44;16.30;;;9.23;;
3068;SDS011;1545;51.728;8.796;2023-04-24T07:37:10;14.17;;;8.03;;
3068;SDS011;1545;51.728;8.796;2023-04-24T07:39:35;12.37;;;7.57;;
3068;SDS011;1545;51.728;8.796;2023-04-24T07:42:01;12.53;;;7.60;;
3068;SDS011;1545;51.728;8.796;2023-04-24T07:44:27;11.87;;;7.47;;
3068;SDS011;1545;51.728;8.796;2023-04-24T07:46:52;18.13;;;8.00;;
3068;SDS011;1545;51.728;8.796;2023-04-24T07:49:18;12.10;;;7.23;;
3068;SDS011;1545;51.728;8.796;2023-04-24T07:51:44;9.90;;;7.30;;
3068;SDS011;1545;51.728;8.796;2023-04-24T07:54:10;9.17;;;6.90;;
3068;SDS011;1545;51.728;8.796;2023-04-24T07:56:35;13.37;;;6.80;;
3068;SDS011;1545;51.728;8.796;2023-04-24T07:59:03;13.33;;;6.63;;
3068;SDS011;1545;51.728;8.796;2023-04-24T08:01:29;8.77;;;5.93;;
3068;SDS011;1545;51.728;8.796;2023-04-24T08:03:55;9.53;;;6.50;;
3068;SDS011;1545;51.728;8.796;2023-04-24T08:06:21;8.73;;;6.33;;
3068;SDS011;1545;51.728;8.796;2023-04-24T08:08:48;7.83;;;6.00;;
3068;SDS011;1545;51.728;8.796;2023-04-24T08:11:13;8.77;;;6.03;;
3068;SDS011;1545;51.728;8.796;2023-04-24T08:13:39;10.23;;;5.60;;
3068;SDS011;1545;51.728;8.796;2023-04-24T08:16:04;7.73;;;5.67;;
3068;SDS011;1545;51.728;8.796;2023-04-24T08:18:30;8.27;;;6.00;;
3068;SDS011;1545;51.728;8.796;2023-04-24T08:20:55;10.67;;;6.43;;
3068;SDS011;1545;51.728;8.796;2023-04-24T08:23:26;10.33;;;6.00;;
3068;SDS011;1545;51.728;8.796;2023-04-24T08:25:51;10.70;;;5.60;;
3068;SDS011;1545;51.728;8.796;2023-04-24T08:28:17;9.57;;;5.70;;
3068;SDS011;1545;51.728;8.796;2023-04-24T08:30:45;8.37;;;5.33;;
3068;SDS011;1545;51.728;8.796;2023-04-24T08:33:11;8.83;;;5.80;;
3068;SDS011;1545;51.728;8.796;2023-04-24T08:35:37;9.37;;;5.70;;
3068;SDS011;1545;51.728;8.796;2023-04-24T08:38:03;10.77;;;5.90;;
3068;SDS011;1545;51.728;8.796;2023-04-24T08:40:29;9.87;;;5.93;;
3068;SDS011;1545;51.728;8.796;2023-04-24T08:42:58;15.77;;;6.03;;
3068;SDS011;1545;51.728;8.796;2023-04-24T08:45:25;8.53;;;6.00;;
3068;SDS011;1545;51.728;8.796;2023-04-24T08:47:51;14.13;;;6.60;;
3068;SDS011;1545;51.728;8.796;2023-04-24T08:50:18;9.43;;;5.70;;
3068;SDS011;1545;51.728;8.796;2023-04-24T08:52:44;13.13;;;7.85;;
3068;SDS011;1545;51.728;8.796;2023-04-24T08:55:10;11.07;;;6.57;;
3068;SDS011;1545;51.728;8.796;2023-04-24T08:57:36;11.70;;;5.97;;
3068;SDS011;1545;51.728;8.796;2023-04-24T09:00:03;8.67;;;5.80;;
3068;SDS011;1545;51.728;8.796;2023-04-24T09:02:29;6.00;;;4.60;;
3068;SDS011;1545;51.728;8.796;2023-04-24T09:04:56;7.73;;;5.10;;
3068;SDS011;1545;51.728;8.796;2023-04-24T09:07:23;14.47;;;5.00;;
3068;SDS011;1545;51.728;8.796;2023-04-24T09:09:50;6.50;;;4.27;;
3068;SDS011;1545;51.728;8.796;2023-04-24T09:12:17;6.63;;;4.73;;
3068;SDS011;1545;51.728;8.796;2023-04-24T09:14:44;10.17;;;4.70;;
3068;SDS011;1545;51.728;8.796;2023-04-24T09:17:10;7.13;;;4.37;;
3068;SDS011;1545;51.728;8.796;2023-04-24T09:19:36;10.23;;;4.40;;
3068;SDS011;1545;51.728;8.796;2023-04-24T09:22:06;4.73;;;3.90;;
3068;SDS011;1545;51.728;8.796;2023-04-24T09:24:33;5.80;;;4.03;;
3068;SDS011;1545;51.728;8.796;2023-04-24T09:26:59;6.57;;;3.80;;
3068;SDS011;1545;51.728;8.796;2023-04-24T09:29:28;6.57;;;4.90;;
3068;SDS011;1545;51.728;8.796;2023-04-24T09:31:54;4.87;;;3.90;;
3068;SDS011;1545;51.728;8.796;2023-04-24T09:34:24;4.57;;;3.53;;
3068;SDS011;1545;51.728;8.796;2023-04-24T09:36:51;8.83;;;3.63;;
3068;SDS011;1545;51.728;8.796;2023-04-24T09:39:17;7.30;;;3.57;;
3068;SDS011;1545;51.728;8.796;2023-04-24T09:41:54;6.23;;;3.70;;
3068;SDS011;1545;51.728;8.796;2023-04-24T09:44:26;10.53;;;4.30;;
3068;SDS011;1545;51.728;8.796;2023-04-24T09:46:54;5.10;;;3.77;;
3068;SDS011;1545;51.728;8.796;2023-04-24T09:49:27;9.40;;;4.00;;
3068;SDS011;1545;51.728;8.796;2023-04-24T09:52:04;7.10;;;3.90;;
3068;SDS011;1545;51.728;8.796;2023-04-24T09:54:34;7.77;;;3.27;;
3068;SDS011;1545;51.728;8.796;2023-04-24T09:57:01;5.60;;;3.30;;
3068;SDS011;1545;51.728;8.796;2023-04-24T09:59:27;4.10;;;2.60;;
3068;SDS011;1545;51.728;8.796;2023-04-24T10:01:52;3.17;;;2.30;;
3068;SDS011;1545;51.728;8.796;2023-04-24T10:04:19;5.77;;;2.73;;
3068;SDS011;1545;51.728;8.796;2023-04-24T10:06:49;2.83;;;2.57;;
3068;SDS011;1545;51.728;8.796;2023-04-24T10:09:16;3.70;;;2.80;;
3068;SDS011;1545;51.728;8.796;2023-04-24T10:11:47;3.03;;;2.67;;
3068;SDS011;1545;51.728;8.796;2023-04-24T10:14:15;6.63;;;3.10;;
3068;SDS011;1545;51.728;8.796;2023-04-24T10:16:44;2.90;;;2.30;;
3068;SDS011;1545;51.728;8.796;2023-04-24T10:19:12;4.63;;;2.40;;
3068;SDS011;1545;51.728;8.796;2023-04-24T10:21:38;5.43;;;2.20;;
3068;SDS011;1545;51.728;8.796;2023-04-24T10:24:07;6.20;;;2.20;;
3068;SDS011;1545;51.728;8.796;2023-04-24T10:26:34;2.97;;;2.20;;
3068;SDS011;1545;51.728;8.796;2023-04-24T10:29:00;5.50;;;2.30;;
3068;SDS011;1545;51.728;8.796;2023-04-24T10:31:26;2.43;;;2.23;;
3068;SDS011;1545;51.728;8.796;2023-04-24T10:33:55;2.53;;;1.90;;
3068;SDS011;1545;51.728;8.796;2023-04-24T10:36:23;2.37;;;2.13;;
3068;SDS011;1545;51.728;8.796;2023-04-24T10:38:51;2.30;;;2.17;;
3068;SDS011;1545;51.728;8.796;2023-04-24T10:41:21;3.83;;;2.00;;
3068;SDS011;1545;51.728;8.796;2023-04-24T10:46:52;1.30;;;1.20;;
3068;SDS011;1545;51.728;8.796;2023-04-24T10:49:27;1.50;;;1.40;;
3068;SDS011;1545;51.728;8.796;2023-04-24T10:51:54;4.20;;;1.30;;
3068;SDS011;1545;51.728;8.796;2023-04-24T10:54:35;1.97;;;1.60;;
3068;SDS011;1545;51.728;8.796;2023-04-24T10:59:48;1.87;;;1.57;;
3068;SDS011;1545;51.728;8.796;2023-04-24T11:02:15;1.60;;;1.50;;
3068;SDS011;1545;51.728;8.796;2023-04-24T11:04:42;7.67;;;1.80;;
3068;SDS011;1545;51.728;8.796;2023-04-24T11:07:11;3.80;;;1.73;;
3068;SDS011;1545;51.728;8.796;2023-04-24T11:09:37;2.23;;;1.57;;
3068;SDS011;1545;51.728;8.796;2023-04-24T11:12:09;1.50;;;1.50;;
3068;SDS011;1545;51.728;8.796;2023-04-24T11:17:36;2.07;;;1.87;;
3068;SDS011;1545;51.728;8.796;2023-04-24T11:20:06;1.60;;;1.53;;
3068;SDS011;1545;51.728;8.796;2023-04-24T11:22:34;2.83;;;2.23;;
3068;SDS011;1545;51.728;8.796;2023-04-24T11:25:01;2.63;;;2.23;;
3068;SDS011;1545;51.728;8.796;2023-04-24T11:27:29;2.30;;;2.07;;
3068;SDS011;1545;51.728;8.796;2023-04-24T11:32:27;2.67;;;2.03;;
3068;SDS011;1545;51.728;8.796;2023-04-24T11:35:00;5.10;;;2.40;;
3068;SDS011;1545;51.728;8.796;2023-04-24T11:37:29;3.77;;;2.50;;
3068;SDS011;1545;51.728;8.796;2023-04-24T11:40:03;4.03;;;3.20;;
3068;SDS011;1545;51.728;8.796;2023-04-24T11:42:34;5.37;;;3.00;;
3068;SDS011;1545;51.728;8.796;2023-04-24T11:45:14;4.60;;;3.60;;
3068;SDS011;1545;51.728;8.796;2023-04-24T11:47:44;4.17;;;3.23;;
3068;SDS011;1545;51.728;8.796;2023-04-24T11:50:11;4.67;;;3.63;;
3068;SDS011;1545;51.728;8.796;2023-04-24T11:52:39;8.27;;;3.90;;
3068;SDS011;1545;51.728;8.796;2023-04-24T11:57:42;6.77;;;3.70;;
3068;SDS011;1545;51.728;8.796;2023-04-24T12:00:20;6.03;;;3.80;;
3068;SDS011;1545;51.728;8.796;2023-04-24T12:02:50;4.63;;;3.87;;
3068;SDS011;1545;51.728;8.796;2023-04-24T12:05:26;4.93;;;3.80;;
3068;SDS011;1545;51.728;8.796;2023-04-24T12:07:52;5.70;;;4.03;;
3068;SDS011;1545;51.728;8.796;2023-04-24T12:10:21;8.17;;;4.03;;
3068;SDS011;1545;51.728;8.796;2023-04-24T12:12:49;4.23;;;3.73;;
3068;SDS011;1545;51.728;8.796;2023-04-24T12:15:16;5.03;;;4.13;;
3068;SDS011;1545;51.728;8.796;2023-04-24T12:17:42;6.70;;;3.70;;
3068;SDS011;1545;51.728;8.796;2023-04-24T12:20:08;8.53;;;4.13;;
3068;SDS011;1545;51.728;8.796;2023-04-24T12:25:15;4.70;;;2.93;;
3068;SDS011;1545;51.728;8.796;2023-04-24T12:27:41;5.13;;;3.77;;
3068;SDS011;1545;51.728;8.796;2023-04-24T12:30:10;7.23;;;3.70;;
3068;SDS011;1545;51.728;8.796;2023-04-24T12:32:41;7.77;;;4.03;;
3068;SDS011;1545;51.728;8.796;2023-04-24T12:35:08;5.53;;;3.87;;
3068;SDS011;1545;51.728;8.796;2023-04-24T12:37:33;7.90;;;4.80;;
3068;SDS011;1545;51.728;8.796;2023-04-24T12:40:02;12.70;;;4.50;;
3068;SDS011;1545;51.728;8.796;2023-04-24T12:42:28;8.57;;;4.30;;
3068;SDS011;1545;51.728;8.796;2023-04-24T12:44:58;8.87;;;5.40;;
3068;SDS011;1545;51.728;8.796;2023-04-24T12:47:26;8.83;;;5.40;;
3068;SDS011;1545;51.728;8.796;2023-04-24T12:49:53;10.93;;;5.10;;
3068;SDS011;1545;51.728;8.796;2023-04-24T12:52:20;9.10;;;5.30;;
3068;SDS011;1545;51.728;8.796;2023-04-24T12:54:49;15.20;;;5.60;;
3068;SDS011;1545;51.728;8.796;2023-04-24T12:57:15;13.57;;;5.63;;
3068;SDS011;1545;51.728;8.796;2023-04-24T12:59:41;10.27;;;6.53;;
3068;SDS011;1545;51.728;8.796;2023-04-24T13:02:07;10.53;;;6.07;;
3068;SDS011;1545;51.728;8.796;2023-04-24T13:04:34;12.50;;;7.10;;
3068;SDS011;1545;51.728;8.796;2023-04-24T13:06:59;11.60;;;7.47;;
3068;SDS011;1545;51.728;8.796;2023-04-24T13:09:25;12.00;;;7.90;;
3068;SDS011;1545;51.728;8.796;2023-04-24T13:11:50;16.67;;;8.20;;
3068;SDS011;1545;51.728;8.796;2023-04-24T13:14:16;14.57;;;7.97;;
3068;SDS011;1545;51.728;8.796;2023-04-24T13:16:41;15.93;;;8.13;;
3068;SDS011;1545;51.728;8.796;2023-04-24T13:19:07;20.37;;;9.20;;
3068;SDS011;1545;51.728;8.796;2023-04-24T13:21:32;15.20;;;8.60;;
3068;SDS011;1545;51.728;8.796;2023-04-24T13:23:58;24.17;;;9.00;;
3068;SDS011;1545;51.728;8.796;2023-04-24T13:26:24;18.17;;;8.67;;
3068;SDS011;1545;51.728;8.796;2023-04-24T13:28:50;15.37;;;8.67;;
3068;SDS011;1545;51.728;8.796;2023-04-24T13:31:15;17.17;;;8.07;;
3068;SDS011;1545;51.728;8.796;2023-04-24T13:33:41;18.63;;;9.23;;
3068;SDS011;1545;51.728;8.796;2023-04-24T13:36:06;16.80;;;8.80;;
3068;SDS011;1545;51.728;8.796;2023-04-24T13:38:32;16.57;;;8.50;;
3068;SDS011;1545;51.728;8.796;2023-04-24T13:40:59;14.00;;;7.80;;
3068;SDS011;1545;51.728;8.796;2023-04-24T13:43:25;19.47;;;8.57;;
3068;SDS011;1545;51.728;8.796;2023-04-24T13:45:50;16.93;;;8.83;;
3068;SDS011;1545;51.728;8.796;2023-04-24T13:48:16;22.27;;;9.40;;
3068;SDS011;1545;51.728;8.796;2023-04-24T13:50:42;22.60;;;9.23;;
3068;SDS011;1545;51.728;8.796;2023-04-24T13:53:07;22.60;;;10.07;;
3068;SDS011;1545;51.728;8.796;2023-04-24T13:55:33;21.87;;;9.80;;
3068;SDS011;1545;51.728;8.796;2023-04-24T13:57:59;28.30;;;11.03;;
3068;SDS011;1545;51.728;8.796;2023-04-24T14:00:26;26.70;;;11.00;;
3068;SDS011;1545;51.728;8.796;2023-04-24T14:02:52;20.97;;;10.97;;
3068;SDS011;1545;51.728;8.796;2023-04-24T14:05:17;23.83;;;11.20;;
3068;SDS011;1545;51.728;8.796;2023-04-24T14:07:43;30.17;;;13.13;;
3068;SDS011;1545;51.728;8.796;2023-04-24T14:10:08;20.77;;;12.63;;
3068;SDS011;1545;51.728;8.796;2023-04-24T14:12:35;26.87;;;12.33;;
3068;SDS011;1545;51.728;8.796;2023-04-24T14:15:00;34.07;;;14.40;;
3068;SDS011;1545;51.728;8.796;2023-04-24T14:17:26;29.67;;;14.90;;
3068;SDS011;1545;51.728;8.796;2023-04-24T14:19:52;26.47;;;14.77;;
3068;SDS011;1545;51.728;8.796;2023-04-24T14:22:21;29.43;;;16.07;;
3068;SDS011;1545;51.728;8.796;2023-04-24T14:24:46;35.67;;;16.03;;
3068;SDS011;1545;51.728;8.796;2023-04-24T14:27:12;37.40;;;16.50;;
3068;SDS011;1545;51.728;8.796;2023-04-24T14:29:37;35.20;;;17.07;;
3068;SDS011;1545;51.728;8.796;2023-04-24T14:32:03;37.53;;;16.00;;
3068;SDS011;1545;51.728;8.796;2023-04-24T14:34:28;30.17;;;16.13;;
3068;SDS011;1545;51.728;8.796;2023-04-24T14:36:54;32.40;;;15.57;;
3068;SDS011;1545;51.728;8.796;2023-04-24T14:39:19;35.53;;;16.03;;
3068;SDS011;1545;51.728;8.796;2023-04-24T14:41:45;25.17;;;13.67;;
3068;SDS011;1545;51.728;8.796;2023-04-24T14:44:11;33.33;;;14.13;;
3068;SDS011;1545;51.728;8.796;2023-04-24T14:46:36;27.97;;;14.97;;
3068;SDS011;1545;51.728;8.796;2023-04-24T14:49:02;26.50;;;14.10;;
3068;SDS011;1545;51.728;8.796;2023-04-24T14:51:27;30.63;;;14.17;;
3068;SDS011;1545;51.728;8.796;2023-04-24T14:53:53;25.97;;;13.00;;
3068;SDS011;1545;51.728;8.796;2023-04-24T14:56:18;19.60;;;10.83;;
3068;SDS011;1545;51.728;8.796;2023-04-24T14:58:44;20.93;;;10.80;;
3068;SDS011;1545;51.728;8.796;2023-04-24T15:01:10;21.63;;;10.03;;
3068;SDS011;1545;51.728;8.796;2023-04-24T15:03:35;13.67;;;8.37;;
3068;SDS011;1545;51.728;8.796;2023-04-24T15:06:01;14.83;;;8.57;;
3068;SDS011;1545;51.728;8.796;2023-04-24T15:08:26;15.03;;;8.33;;
3068;SDS011;1545;51.728;8.796;2023-04-24T15:10:52;19.43;;;8.43;;
3068;SDS011;1545;51.728;8.796;2023-04-24T15:13:18;21.33;;;8.20;;
3068;SDS011;1545;51.728;8.796;2023-04-24T15:15:45;15.97;;;8.30;;
3068;SDS011;1545;51.728;8.796;2023-04-24T15:18:11;17.50;;;8.30;;
3068;SDS011;1545;51.728;8.796;2023-04-24T15:20:37;19.47;;;8.13;;